createdAt,value
2018-03-04T00:00:09.133Z,8.00
2018-03-04T00:01:09.145Z,8.00
2018-03-04T00:02:09.158Z,4.00
2018-03-04T00:03:09.169Z,8.00
2018-03-04T00:04:09.181Z,8.00
2018-03-04T00:05:09.194Z,8.00
2018-03-04T00:06:09.207Z,8.00
2018-03-04T00:07:09.218Z,8.00
2018-03-04T00:08:09.233Z,8.00
2018-03-04T00:09:09.242Z,8.00
2018-03-04T00:10:09.255Z,8.00
2018-03-04T00:11:09.266Z,8.00
2018-03-04T00:12:09.279Z,8.00
2018-03-04T00:13:09.292Z,8.00
2018-03-04T00:14:09.305Z,8.00
2018-03-04T00:15:09.316Z,8.00
2018-03-04T00:16:09.328Z,8.00
2018-03-04T00:17:09.340Z,8.00
2018-03-04T00:18:09.353Z,8.00
2018-03-04T00:19:09.364Z,8.00
2018-03-04T00:20:09.377Z,8.00
2018-03-04T00:21:09.390Z,8.00
2018-03-04T00:22:09.402Z,8.00
2018-03-04T00:23:09.413Z,8.00
2018-03-04T00:24:09.425Z,8.00
2018-03-04T00:25:09.437Z,8.00
2018-03-04T00:26:09.451Z,8.00
2018-03-04T00:27:09.463Z,8.00
2018-03-04T00:28:09.474Z,8.00
2018-03-04T00:29:09.487Z,8.00
2018-03-04T00:30:09.499Z,8.00
2018-03-04T00:31:09.511Z,4.00
2018-03-04T00:32:09.523Z,8.00
2018-03-04T00:33:09.536Z,8.00
2018-03-04T00:34:09.548Z,8.00
2018-03-04T00:35:09.559Z,8.00
2018-03-04T00:36:09.572Z,8.00
2018-03-04T00:37:09.584Z,8.00
2018-03-04T00:38:09.596Z,8.00
2018-03-04T00:39:09.613Z,8.00
2018-03-04T00:40:09.621Z,8.00
2018-03-04T00:41:09.632Z,8.00
2018-03-04T00:42:09.645Z,8.00
2018-03-04T00:43:09.657Z,8.00
2018-03-04T00:44:09.670Z,8.00
2018-03-04T00:45:09.682Z,8.00
2018-03-04T00:46:09.694Z,4.00
2018-03-04T00:47:09.706Z,8.00
2018-03-04T00:48:09.719Z,8.00
2018-03-04T00:49:09.732Z,8.00
2018-03-04T00:50:09.743Z,8.00
2018-03-04T00:51:09.760Z,8.00
2018-03-04T00:52:09.766Z,8.00
2018-03-04T00:53:09.779Z,8.00
2018-03-04T00:54:09.791Z,8.00
2018-03-04T00:55:09.803Z,8.00
2018-03-04T00:56:09.814Z,8.00
2018-03-04T00:57:09.827Z,8.00
2018-03-04T00:58:09.840Z,8.00
2018-03-04T00:59:09.860Z,8.00
2018-03-04T01:00:09.864Z,8.00
2018-03-04T01:01:09.876Z,8.00
2018-03-04T01:02:09.888Z,8.00
2018-03-04T01:03:09.900Z,8.00
2018-03-04T01:04:09.912Z,8.00
2018-03-04T01:05:09.925Z,8.00
2018-03-04T01:06:09.942Z,8.00
2018-03-04T01:07:09.949Z,8.00
2018-03-04T01:08:09.961Z,8.00
2018-03-04T01:09:09.973Z,8.00
2018-03-04T01:10:09.985Z,8.00
2018-03-04T01:11:09.996Z,8.00
2018-03-04T01:12:10.009Z,4.00
2018-03-04T01:13:10.021Z,8.00
2018-03-04T01:14:10.034Z,8.00
2018-03-04T01:15:10.046Z,8.00
2018-03-04T01:16:10.057Z,8.00
2018-03-04T01:17:10.069Z,8.00
2018-03-04T01:18:10.081Z,8.00
2018-03-04T01:19:10.093Z,8.00
2018-03-04T01:20:10.105Z,8.00
2018-03-04T01:21:10.118Z,8.00
2018-03-04T01:22:10.129Z,8.00
2018-03-04T01:23:10.141Z,8.00
2018-03-04T01:24:10.153Z,8.00
2018-03-04T01:25:10.167Z,8.00
2018-03-04T01:26:10.179Z,4.00
2018-03-04T01:27:10.190Z,8.00
2018-03-04T01:28:10.202Z,8.00
2018-03-04T01:29:10.215Z,8.00
2018-03-04T01:30:10.227Z,8.00
2018-03-04T01:31:10.238Z,8.00
2018-03-04T01:32:10.250Z,8.00
2018-03-04T01:33:10.262Z,8.00
2018-03-04T01:34:10.275Z,8.00
2018-03-04T01:35:10.286Z,8.00
2018-03-04T01:36:10.299Z,8.00
2018-03-04T01:37:10.311Z,8.00
2018-03-04T01:38:10.324Z,8.00
2018-03-04T01:39:10.335Z,8.00
2018-03-04T01:40:10.346Z,8.00
2018-03-04T01:41:10.360Z,8.00
2018-03-04T01:42:10.372Z,8.00
2018-03-04T01:43:10.383Z,8.00
2018-03-04T01:44:10.396Z,8.00
2018-03-04T01:45:10.407Z,8.00
2018-03-04T01:46:10.421Z,8.00
2018-03-04T01:47:10.432Z,8.00
2018-03-04T01:48:10.444Z,8.00
2018-03-04T01:49:10.456Z,8.00
2018-03-04T01:50:10.469Z,8.00
2018-03-04T01:51:10.480Z,8.00
2018-03-04T01:52:10.493Z,8.00
2018-03-04T01:53:10.506Z,8.00
2018-03-04T01:54:10.517Z,4.00
2018-03-04T01:55:10.528Z,4.00
2018-03-04T01:56:10.542Z,4.00
2018-03-04T01:57:10.554Z,4.00
2018-03-04T01:58:10.565Z,4.00
2018-03-04T01:59:10.577Z,4.00
2018-03-04T02:00:10.597Z,4.00
2018-03-04T02:01:10.602Z,4.00
2018-03-04T02:02:10.613Z,4.00
2018-03-04T02:03:10.626Z,4.00
2018-03-04T02:04:10.638Z,4.00
2018-03-04T02:05:10.650Z,4.00
2018-03-04T02:06:10.663Z,4.00
2018-03-04T02:07:10.674Z,4.00
2018-03-04T02:08:10.687Z,4.00
2018-03-04T02:09:10.698Z,4.00
2018-03-04T02:10:10.711Z,4.00
2018-03-04T02:11:10.724Z,4.00
2018-03-04T02:12:10.735Z,4.00
2018-03-04T02:13:10.752Z,4.00
2018-03-04T02:14:10.760Z,4.00
2018-03-04T02:15:10.771Z,4.00
2018-03-04T02:16:10.785Z,4.00
2018-03-04T02:17:10.796Z,4.00
2018-03-04T02:18:10.811Z,4.00
2018-03-04T02:19:10.819Z,4.00
2018-03-04T02:20:10.833Z,4.00
2018-03-04T02:21:10.845Z,4.00
2018-03-04T02:22:10.858Z,4.00
2018-03-04T02:23:10.868Z,4.00
2018-03-04T02:24:10.882Z,4.00
2018-03-04T02:25:10.896Z,4.00
2018-03-04T02:26:10.907Z,4.00
2018-03-04T02:27:10.917Z,4.00
2018-03-04T02:28:10.931Z,4.00
2018-03-04T02:29:10.942Z,4.00
2018-03-04T02:30:10.953Z,4.00
2018-03-04T02:31:10.968Z,4.00
2018-03-04T02:32:10.978Z,4.00
2018-03-04T02:33:10.992Z,4.00
2018-03-04T02:34:11.003Z,4.00
2018-03-04T02:35:11.016Z,4.00
2018-03-04T02:36:11.027Z,4.00
2018-03-04T02:37:11.039Z,4.00
2018-03-04T02:38:11.052Z,4.00
2018-03-04T02:39:11.063Z,4.00
2018-03-04T02:40:11.075Z,4.00
2018-03-04T02:41:11.089Z,4.00
2018-03-04T02:42:11.102Z,4.00
2018-03-04T02:43:11.111Z,4.00
2018-03-04T02:44:11.124Z,4.00
2018-03-04T02:45:11.136Z,4.00
2018-03-04T02:46:11.153Z,4.00
2018-03-04T02:47:11.161Z,4.00
2018-03-04T02:48:11.178Z,4.00
2018-03-04T02:49:11.185Z,4.00
2018-03-04T02:50:11.197Z,4.00
2018-03-04T02:51:11.209Z,4.00
2018-03-04T02:52:11.223Z,4.00
2018-03-04T02:53:11.234Z,4.00
2018-03-04T02:54:11.248Z,4.00
2018-03-04T02:55:11.258Z,4.00
2018-03-04T02:56:11.272Z,4.00
2018-03-04T02:57:11.283Z,4.00
2018-03-04T02:58:11.298Z,4.00
2018-03-04T02:59:11.309Z,4.00
2018-03-04T03:00:11.321Z,4.00
2018-03-04T03:01:11.332Z,4.00
2018-03-04T03:02:11.345Z,4.00
2018-03-04T03:03:11.359Z,4.00
2018-03-04T03:04:11.372Z,4.00
2018-03-04T03:05:11.382Z,4.00
2018-03-04T03:06:11.397Z,4.00
2018-03-04T03:07:11.407Z,4.00
2018-03-04T03:08:11.420Z,4.00
2018-03-04T03:09:11.431Z,4.00
2018-03-04T03:10:11.444Z,4.00
2018-03-04T03:11:11.455Z,4.00
2018-03-04T03:12:11.468Z,4.00
2018-03-04T03:13:11.480Z,4.00
2018-03-04T03:14:11.494Z,4.00
2018-03-04T03:15:11.505Z,4.00
2018-03-04T03:16:11.518Z,4.00
2018-03-04T03:17:11.530Z,4.00
2018-03-04T03:18:11.543Z,4.00
2018-03-04T03:19:11.555Z,4.00
2018-03-04T03:20:11.568Z,4.00
2018-03-04T03:21:11.880Z,4.00
2018-03-04T03:22:11.598Z,4.00
2018-03-04T03:23:11.604Z,4.00
2018-03-04T03:24:11.618Z,4.00
2018-03-04T03:25:11.638Z,4.00
2018-03-04T03:26:11.643Z,4.00
2018-03-04T03:27:11.655Z,4.00
2018-03-04T03:28:11.668Z,4.00
2018-03-04T03:29:11.681Z,4.00
2018-03-04T03:30:11.695Z,4.00
2018-03-04T03:31:11.706Z,4.00
2018-03-04T03:32:11.717Z,4.00
2018-03-04T03:33:11.730Z,4.00
2018-03-04T03:34:11.747Z,4.00
2018-03-04T03:35:11.758Z,4.00
2018-03-04T03:36:11.768Z,4.00
2018-03-04T03:37:11.780Z,4.00
2018-03-04T03:38:11.793Z,4.00
2018-03-04T03:39:11.805Z,4.00
2018-03-04T03:40:11.817Z,4.00
2018-03-04T03:41:11.830Z,4.00
2018-03-04T03:42:11.847Z,4.00
2018-03-04T03:43:11.855Z,4.00
2018-03-04T03:44:11.867Z,4.00
2018-03-04T03:45:11.880Z,4.00
2018-03-04T03:46:11.892Z,4.00
2018-03-04T03:47:11.905Z,4.00
2018-03-04T03:48:11.922Z,4.00
2018-03-04T03:49:11.932Z,4.00
2018-03-04T03:50:11.944Z,4.00
2018-03-04T03:51:11.955Z,4.00
2018-03-04T03:52:11.968Z,4.00
2018-03-04T03:53:11.980Z,4.00
2018-03-04T03:54:11.993Z,4.00
2018-03-04T03:55:12.005Z,4.00
2018-03-04T03:56:12.018Z,4.00
2018-03-04T03:57:12.032Z,4.00
2018-03-04T03:58:12.043Z,4.00
2018-03-04T03:59:12.055Z,4.00
2018-03-04T04:00:12.070Z,4.00
2018-03-04T04:01:12.081Z,4.00
2018-03-04T04:02:12.094Z,4.00
2018-03-04T04:03:12.106Z,4.00
2018-03-04T04:04:12.119Z,4.00
2018-03-04T04:05:12.131Z,4.00
2018-03-04T04:06:12.144Z,4.00
2018-03-04T04:07:12.157Z,4.00
2018-03-04T04:08:12.169Z,4.00
2018-03-04T04:09:12.182Z,4.00
2018-03-04T04:10:12.194Z,4.00
2018-03-04T04:11:12.206Z,4.00
2018-03-04T04:12:12.221Z,4.00
2018-03-04T04:13:12.233Z,4.00
2018-03-04T04:14:12.246Z,4.00
2018-03-04T04:15:12.257Z,4.00
2018-03-04T04:16:12.270Z,4.00
2018-03-04T04:17:12.282Z,4.00
2018-03-04T04:18:12.296Z,4.00
2018-03-04T04:19:12.309Z,4.00
2018-03-04T04:20:12.380Z,4.00
2018-03-04T04:21:12.336Z,4.00
2018-03-04T04:22:12.346Z,4.00
2018-03-04T04:23:12.358Z,4.00
2018-03-04T04:24:12.372Z,4.00
2018-03-04T04:25:12.384Z,4.00
2018-03-04T04:26:12.397Z,4.00
2018-03-04T04:27:12.412Z,4.00
2018-03-04T04:28:12.421Z,4.00
2018-03-04T04:29:12.435Z,4.00
2018-03-04T04:30:12.446Z,4.00
2018-03-04T04:31:12.459Z,4.00
2018-03-04T04:32:12.472Z,4.00
2018-03-04T04:33:12.485Z,4.00
2018-03-04T04:34:12.499Z,4.00
2018-03-04T04:35:12.510Z,4.00
2018-03-04T04:36:12.523Z,4.00
2018-03-04T04:37:12.536Z,4.00
2018-03-04T04:38:12.549Z,4.00
2018-03-04T04:39:12.561Z,4.00
2018-03-04T04:40:12.575Z,4.00
2018-03-04T04:41:12.587Z,4.00
2018-03-04T04:42:12.600Z,4.00
2018-03-04T04:43:12.612Z,4.00
2018-03-04T04:44:12.625Z,4.00
2018-03-04T04:45:12.640Z,4.00
2018-03-04T04:46:12.651Z,4.00
2018-03-04T04:47:12.663Z,4.00
2018-03-04T04:48:12.675Z,4.00
2018-03-04T04:49:12.688Z,4.00
2018-03-04T04:50:12.701Z,4.00
2018-03-04T04:51:12.713Z,4.00
2018-03-04T04:52:12.726Z,4.00
2018-03-04T04:53:12.741Z,4.00
2018-03-04T04:54:12.752Z,4.00
2018-03-04T04:55:12.763Z,4.00
2018-03-04T04:56:12.778Z,4.00
2018-03-04T04:57:12.792Z,4.00
2018-03-04T04:58:12.803Z,4.00
2018-03-04T04:59:12.815Z,4.00
2018-03-04T05:00:12.828Z,4.00
2018-03-04T05:01:12.841Z,4.00
2018-03-04T05:02:12.854Z,4.00
2018-03-04T05:03:12.920Z,4.00
2018-03-04T05:04:12.879Z,4.00
2018-03-04T05:05:12.892Z,4.00
2018-03-04T05:06:12.904Z,4.00
2018-03-04T05:07:12.917Z,4.00
2018-03-04T05:08:12.930Z,4.00
2018-03-04T05:09:12.944Z,4.00
2018-03-04T05:10:12.955Z,4.00
2018-03-04T05:11:12.968Z,4.00
2018-03-04T05:12:12.981Z,4.00
2018-03-04T05:13:12.994Z,4.00
2018-03-04T05:14:13.007Z,4.00
2018-03-04T05:15:13.027Z,4.00
2018-03-04T05:16:13.032Z,4.00
2018-03-04T05:17:13.045Z,4.00
2018-03-04T05:18:13.058Z,4.00
2018-03-04T05:19:13.069Z,4.00
2018-03-04T05:20:13.084Z,4.00
2018-03-04T05:21:13.096Z,4.00
2018-03-04T05:22:13.108Z,4.00
2018-03-04T05:23:13.122Z,4.00
2018-03-04T05:24:13.133Z,4.00
2018-03-04T05:25:13.147Z,4.00
2018-03-04T05:26:13.160Z,4.00
2018-03-04T05:27:13.172Z,4.00
2018-03-04T05:28:13.183Z,4.00
2018-03-04T05:29:13.197Z,4.00
2018-03-04T05:30:13.210Z,4.00
2018-03-04T05:31:13.224Z,4.00
2018-03-04T05:32:13.236Z,4.00
2018-03-04T05:33:13.248Z,4.00
2018-03-04T05:34:13.260Z,4.00
2018-03-04T05:35:13.277Z,4.00
2018-03-04T05:36:13.288Z,8.00
2018-03-04T05:37:13.302Z,8.00
2018-03-04T05:38:13.312Z,8.00
2018-03-04T05:39:13.324Z,8.00
2018-03-04T05:40:13.336Z,4.00
2018-03-04T05:41:13.354Z,4.00
2018-03-04T05:42:13.362Z,8.00
2018-03-04T05:43:13.377Z,8.00
2018-03-04T05:44:13.386Z,8.00
2018-03-04T05:45:13.399Z,8.00
2018-03-04T05:46:13.414Z,8.00
2018-03-04T05:47:13.425Z,12.00
2018-03-04T05:48:13.437Z,8.00
2018-03-04T05:49:13.449Z,12.00
2018-03-04T05:50:13.462Z,12.00
2018-03-04T05:51:13.474Z,12.00
2018-03-04T05:52:13.487Z,16.00
2018-03-04T05:53:13.501Z,12.00
2018-03-04T05:54:13.513Z,16.00
2018-03-04T05:55:13.523Z,16.00
2018-03-04T05:56:13.537Z,16.00
2018-03-04T05:57:13.549Z,24.00
2018-03-04T05:58:13.564Z,24.00
2018-03-04T05:59:13.575Z,32.00
2018-03-04T06:00:13.588Z,36.00
2018-03-04T06:01:13.600Z,40.00
2018-03-04T06:02:13.613Z,44.00
2018-03-04T06:03:13.625Z,48.00
2018-03-04T06:04:13.638Z,52.00
2018-03-04T06:05:13.652Z,60.00
2018-03-04T06:06:13.664Z,68.00
2018-03-04T06:07:13.675Z,76.00
2018-03-04T06:08:13.688Z,88.00
2018-03-04T06:09:13.702Z,96.00
2018-03-04T06:10:13.714Z,108.00
2018-03-04T06:11:13.726Z,120.00
2018-03-04T06:12:13.744Z,128.00
2018-03-04T06:13:13.752Z,144.00
2018-03-04T06:14:13.764Z,152.00
2018-03-04T06:15:13.777Z,164.00
2018-03-04T06:16:13.789Z,172.00
2018-03-04T06:17:13.802Z,180.00
2018-03-04T06:18:13.815Z,192.00
2018-03-04T06:19:13.827Z,200.00
2018-03-04T06:20:13.840Z,200.00
2018-03-04T06:21:13.854Z,212.00
2018-03-04T06:22:13.866Z,220.00
2018-03-04T06:23:13.878Z,228.00
2018-03-04T06:24:13.890Z,236.00
2018-03-04T06:25:13.903Z,240.00
2018-03-04T06:26:13.917Z,244.00
2018-03-04T06:27:13.928Z,244.00
2018-03-04T06:28:13.942Z,248.00
2018-03-04T06:29:13.954Z,244.00
2018-03-04T06:30:13.970Z,240.00
2018-03-04T06:31:13.980Z,236.00
2018-03-04T06:32:13.993Z,232.00
2018-03-04T06:33:14.005Z,236.00
2018-03-04T06:34:14.018Z,240.00
2018-03-04T06:35:14.031Z,244.00
2018-03-04T06:36:14.044Z,248.00
2018-03-04T06:37:14.057Z,256.00
2018-03-04T06:38:14.069Z,264.00
2018-03-04T06:39:14.082Z,280.00
2018-03-04T06:40:14.097Z,296.00
2018-03-04T06:41:14.108Z,316.00
2018-03-04T06:42:14.121Z,320.00
2018-03-04T06:43:14.166Z,320.00
2018-03-04T06:44:14.145Z,320.00
2018-03-04T06:45:14.160Z,324.00
2018-03-04T06:46:14.172Z,332.00
2018-03-04T06:47:14.183Z,336.00
2018-03-04T06:48:14.201Z,324.00
2018-03-04T06:49:14.209Z,316.00
2018-03-04T06:50:14.223Z,308.00
2018-03-04T06:51:14.236Z,308.00
2018-03-04T06:52:14.248Z,320.00
2018-03-04T06:53:14.265Z,344.00
2018-03-04T06:54:14.275Z,360.00
2018-03-04T06:55:14.287Z,376.00
2018-03-04T06:56:14.301Z,400.00
2018-03-04T06:57:14.313Z,408.00
2018-03-04T06:58:14.326Z,420.00
2018-03-04T06:59:14.339Z,424.00
2018-03-04T07:00:14.352Z,432.00
2018-03-04T07:01:14.364Z,448.00
2018-03-04T07:02:14.378Z,468.00
2018-03-04T07:03:14.390Z,472.00
2018-03-04T07:04:14.404Z,488.00
2018-03-04T07:05:14.417Z,508.00
2018-03-04T07:06:14.431Z,532.00
2018-03-04T07:07:14.445Z,552.00
2018-03-04T07:08:14.456Z,568.00
2018-03-04T07:09:14.469Z,592.00
2018-03-04T07:10:14.483Z,628.00
2018-03-04T07:11:14.504Z,668.00
2018-03-04T07:12:14.508Z,732.00
2018-03-04T07:13:14.521Z,804.00
2018-03-04T07:14:14.537Z,904.00
2018-03-04T07:15:14.546Z,1012.00
2018-03-04T07:16:14.561Z,1072.00
2018-03-04T07:17:14.574Z,1028.00
2018-03-04T07:18:14.588Z,940.00
2018-03-04T07:19:14.600Z,872.00
2018-03-04T07:20:14.614Z,840.00
2018-03-04T07:21:14.626Z,820.00
2018-03-04T07:22:14.640Z,800.00
2018-03-04T07:23:14.653Z,812.00
2018-03-04T07:24:14.666Z,824.00
2018-03-04T07:25:14.679Z,836.00
2018-03-04T07:26:14.693Z,848.00
2018-03-04T07:27:14.705Z,848.00
2018-03-04T07:28:14.720Z,844.00
2018-03-04T07:29:14.732Z,832.00
2018-03-04T07:30:14.747Z,812.00
2018-03-04T07:31:14.760Z,788.00
2018-03-04T07:32:14.774Z,792.00
2018-03-04T07:33:14.786Z,824.00
2018-03-04T07:34:14.801Z,860.00
2018-03-04T07:35:14.813Z,900.00
2018-03-04T07:36:14.826Z,940.00
2018-03-04T07:37:14.840Z,976.00
2018-03-04T07:38:14.852Z,1000.00
2018-03-04T07:39:14.864Z,992.00
2018-03-04T07:40:14.879Z,972.00
2018-03-04T07:41:14.893Z,944.00
2018-03-04T07:42:14.906Z,912.00
2018-03-04T07:43:14.919Z,904.00
2018-03-04T07:44:14.933Z,904.00
2018-03-04T07:45:14.947Z,888.00
2018-03-04T07:46:14.960Z,856.00
2018-03-04T07:47:14.978Z,840.00
2018-03-04T07:48:14.986Z,828.00
2018-03-04T07:49:15.005Z,836.00
2018-03-04T07:50:15.014Z,856.00
2018-03-04T07:51:15.027Z,888.00
2018-03-04T07:52:15.040Z,924.00
2018-03-04T07:53:15.054Z,948.00
2018-03-04T07:54:15.068Z,972.00
2018-03-04T07:55:15.081Z,1008.00
2018-03-04T07:56:15.094Z,1072.00
2018-03-04T07:57:15.120Z,1152.00
2018-03-04T07:58:15.124Z,1228.00
2018-03-04T07:59:15.134Z,1256.00
2018-03-04T08:00:15.148Z,1264.00
2018-03-04T08:01:15.162Z,1276.00
2018-03-04T08:02:15.176Z,1308.00
2018-03-04T08:03:15.192Z,1340.00
2018-03-04T08:04:15.206Z,1348.00
2018-03-04T08:05:15.216Z,1296.00
2018-03-04T08:06:15.230Z,1232.00
2018-03-04T08:07:15.243Z,1208.00
2018-03-04T08:08:15.256Z,1216.00
2018-03-04T08:09:15.271Z,1224.00
2018-03-04T08:10:15.284Z,1224.00
2018-03-04T08:11:15.296Z,1236.00
2018-03-04T08:12:15.311Z,1256.00
2018-03-04T08:13:15.326Z,1276.00
2018-03-04T08:14:15.339Z,1296.00
2018-03-04T08:15:15.352Z,1332.00
2018-03-04T08:16:15.370Z,1344.00
2018-03-04T08:17:15.380Z,1312.00
2018-03-04T08:18:15.395Z,1300.00
2018-03-04T08:19:15.406Z,1332.00
2018-03-04T08:20:15.421Z,1344.00
2018-03-04T08:21:15.435Z,1280.00
2018-03-04T08:22:15.450Z,1208.00
2018-03-04T08:23:15.462Z,1200.00
2018-03-04T08:24:15.476Z,1268.00
2018-03-04T08:25:15.490Z,1372.00
2018-03-04T08:26:15.516Z,1456.00
2018-03-04T08:27:15.517Z,1516.00
2018-03-04T08:28:15.532Z,1560.00
2018-03-04T08:29:15.545Z,1596.00
2018-03-04T08:30:15.560Z,1644.00
2018-03-04T08:31:15.573Z,1728.00
2018-03-04T08:32:15.596Z,1756.00
2018-03-04T08:33:15.600Z,1716.00
2018-03-04T08:34:15.615Z,1724.00
2018-03-04T08:35:15.626Z,1792.00
2018-03-04T08:36:15.646Z,1828.00
2018-03-04T08:37:15.656Z,1816.00
2018-03-04T08:38:15.670Z,1808.00
2018-03-04T08:39:15.684Z,1800.00
2018-03-04T08:40:15.699Z,1780.00
2018-03-04T08:41:15.712Z,1752.00
2018-03-04T08:42:15.726Z,1708.00
2018-03-04T08:43:15.742Z,1668.00
2018-03-04T08:44:15.753Z,1660.00
2018-03-04T08:45:15.767Z,1640.00
2018-03-04T08:46:15.782Z,1592.00
2018-03-04T08:47:15.795Z,1516.00
2018-03-04T08:48:15.809Z,1448.00
2018-03-04T08:49:15.824Z,1408.00
2018-03-04T08:50:15.838Z,1440.00
2018-03-04T08:51:15.851Z,1604.00
2018-03-04T08:52:15.866Z,1860.00
2018-03-04T08:53:15.881Z,2040.00
2018-03-04T08:54:15.895Z,2088.00
2018-03-04T08:55:15.909Z,2056.00
2018-03-04T08:56:15.924Z,1948.00
2018-03-04T08:57:15.937Z,1820.00
2018-03-04T08:58:15.951Z,1736.00
2018-03-04T08:59:15.965Z,1724.00
2018-03-04T09:00:15.982Z,1720.00
2018-03-04T09:01:15.994Z,1700.00
2018-03-04T09:02:16.010Z,1732.00
2018-03-04T09:03:16.023Z,1764.00
2018-03-04T09:04:16.042Z,1772.00
2018-03-04T09:05:16.050Z,1820.00
2018-03-04T09:06:16.069Z,1888.00
2018-03-04T09:07:16.083Z,1908.00
2018-03-04T09:08:16.092Z,1896.00
2018-03-04T09:09:16.108Z,1928.00
2018-03-04T09:10:16.123Z,1952.00
2018-03-04T09:11:16.136Z,1932.00
2018-03-04T09:12:16.150Z,1932.00
2018-03-04T09:13:16.164Z,2012.00
2018-03-04T09:14:16.179Z,2116.00
2018-03-04T09:15:16.193Z,2128.00
2018-03-04T09:16:16.207Z,2076.00
2018-03-04T09:17:16.222Z,2092.00
2018-03-04T09:18:16.236Z,2184.00
2018-03-04T09:19:16.251Z,2316.00
2018-03-04T09:20:16.265Z,2416.00
2018-03-04T09:21:16.280Z,2436.00
2018-03-04T09:22:16.294Z,2472.00
2018-03-04T09:23:16.312Z,2580.00
2018-03-04T09:24:16.323Z,2588.00
2018-03-04T09:25:16.337Z,2516.00
2018-03-04T09:26:16.352Z,2492.00
2018-03-04T09:27:16.365Z,2508.00
2018-03-04T09:28:16.385Z,2624.00
2018-03-04T09:29:16.397Z,2832.00
2018-03-04T09:30:16.410Z,3068.00
2018-03-04T09:31:16.424Z,3368.00
2018-03-04T09:32:16.439Z,3568.00
2018-03-04T09:33:16.457Z,3616.00
2018-03-04T09:34:16.470Z,3604.00
2018-03-04T09:35:16.485Z,3496.00
2018-03-04T09:36:16.497Z,3440.00
2018-03-04T09:37:16.512Z,3568.00
2018-03-04T09:38:16.528Z,3824.00
2018-03-04T09:39:16.541Z,4140.00
2018-03-04T09:40:16.556Z,4464.00
2018-03-04T09:41:16.572Z,4768.00
2018-03-04T09:42:16.585Z,5092.00
2018-03-04T09:43:16.600Z,5348.00
2018-03-04T09:44:16.615Z,5328.00
2018-03-04T09:45:16.630Z,4912.00
2018-03-04T09:46:16.645Z,4304.00
2018-03-04T09:47:16.660Z,3956.00
2018-03-04T09:48:16.678Z,4024.00
2018-03-04T09:49:16.692Z,4408.00
2018-03-04T09:50:16.707Z,4824.00
2018-03-04T09:51:16.720Z,5088.00
2018-03-04T09:52:16.736Z,5232.00
2018-03-04T09:53:16.750Z,5416.00
2018-03-04T09:54:16.766Z,5588.00
2018-03-04T09:55:16.780Z,5776.00
2018-03-04T09:56:16.799Z,5564.00
2018-03-04T09:57:16.811Z,5308.00
2018-03-04T09:58:16.827Z,5144.00
2018-03-04T09:59:16.844Z,5112.00
2018-03-04T10:00:16.858Z,5060.00
2018-03-04T10:01:16.873Z,5052.00
2018-03-04T10:02:16.893Z,5200.00
2018-03-04T10:03:16.905Z,5492.00
2018-03-04T10:04:16.920Z,5568.00
2018-03-04T10:05:16.935Z,5364.00
2018-03-04T10:06:16.951Z,4924.00
2018-03-04T10:07:16.966Z,4572.00
2018-03-04T10:08:16.983Z,4424.00
2018-03-04T10:09:16.999Z,4544.00
2018-03-04T10:10:17.016Z,4932.00
2018-03-04T10:11:17.031Z,5476.00
2018-03-04T10:12:17.051Z,5956.00
2018-03-04T10:13:17.061Z,6396.00
2018-03-04T10:14:17.076Z,6668.00
2018-03-04T10:15:17.092Z,6468.00
2018-03-04T10:16:17.108Z,5812.00
2018-03-04T10:17:17.125Z,5064.00
2018-03-04T10:18:17.142Z,4712.00
2018-03-04T10:19:17.157Z,5016.00
2018-03-04T10:20:17.171Z,5416.00
2018-03-04T10:21:17.187Z,5520.00
2018-03-04T10:22:17.203Z,5596.00
2018-03-04T10:23:17.219Z,5788.00
2018-03-04T10:24:17.236Z,5876.00
2018-03-04T10:25:17.251Z,5804.00
2018-03-04T10:26:17.268Z,5716.00
2018-03-04T10:27:17.284Z,5588.00
2018-03-04T10:28:17.300Z,5332.00
2018-03-04T10:29:17.316Z,5084.00
2018-03-04T10:30:17.332Z,4940.00
2018-03-04T10:31:17.348Z,5012.00
2018-03-04T10:32:17.365Z,5236.00
2018-03-04T10:33:17.380Z,5580.00
2018-03-04T10:34:17.397Z,5740.00
2018-03-04T10:35:17.412Z,5912.00
2018-03-04T10:36:17.428Z,6016.00
2018-03-04T10:37:17.446Z,6088.00
2018-03-04T10:38:17.460Z,6224.00
2018-03-04T10:39:17.476Z,6076.00
2018-03-04T10:40:17.496Z,5808.00
2018-03-04T10:41:17.515Z,5204.00
2018-03-04T10:42:17.525Z,5184.00
2018-03-04T10:43:17.542Z,4912.00
2018-03-04T10:44:17.558Z,4812.00
2018-03-04T10:45:17.577Z,4540.00
2018-03-04T10:46:17.591Z,4468.00
2018-03-04T10:47:17.607Z,5008.00
2018-03-04T10:48:17.623Z,5964.00
2018-03-04T10:49:17.640Z,6732.00
2018-03-04T10:50:17.663Z,5324.00
2018-03-04T10:51:17.677Z,6036.00
2018-03-04T10:52:17.689Z,6932.00
2018-03-04T10:53:17.705Z,7784.00
2018-03-04T10:54:17.721Z,7568.00
2018-03-04T10:55:17.736Z,6952.00
2018-03-04T10:56:17.755Z,6548.00
2018-03-04T10:57:17.771Z,6468.00
2018-03-04T10:58:17.788Z,6556.00
2018-03-04T10:59:17.803Z,6644.00
2018-03-04T11:00:17.820Z,6772.00
2018-03-04T11:01:17.837Z,6860.00
2018-03-04T11:02:17.859Z,6904.00
2018-03-04T11:03:17.869Z,6904.00
2018-03-04T11:04:17.885Z,6832.00
2018-03-04T11:05:17.905Z,6636.00
2018-03-04T11:06:17.920Z,6436.00
2018-03-04T11:07:17.934Z,6212.00
2018-03-04T11:08:17.952Z,6048.00
2018-03-04T11:09:17.970Z,5856.00
2018-03-04T11:10:17.986Z,5644.00
2018-03-04T11:11:18.002Z,5508.00
2018-03-04T11:12:18.020Z,5416.00
2018-03-04T11:13:18.035Z,5424.00
2018-03-04T11:14:18.052Z,5488.00
2018-03-04T11:15:18.085Z,5628.00
2018-03-04T11:16:18.085Z,5736.00
2018-03-04T11:17:18.102Z,5884.00
2018-03-04T11:18:18.119Z,5892.00
2018-03-04T11:19:18.135Z,5776.00
2018-03-04T11:20:18.152Z,5632.00
2018-03-04T11:21:18.319Z,5464.00
2018-03-04T11:22:18.189Z,5296.00
2018-03-04T11:23:18.203Z,5188.00
2018-03-04T11:24:18.220Z,5056.00
2018-03-04T11:25:18.253Z,4968.00
2018-03-04T11:26:18.258Z,4940.00
2018-03-04T11:27:18.272Z,4940.00
2018-03-04T11:28:18.288Z,4944.00
2018-03-04T11:29:18.304Z,4972.00
2018-03-04T11:30:18.325Z,4924.00
2018-03-04T11:31:18.337Z,4888.00
2018-03-04T11:32:18.355Z,4848.00
2018-03-04T11:33:18.372Z,4860.00
2018-03-04T11:34:18.388Z,4884.00
2018-03-04T11:35:18.404Z,4896.00
2018-03-04T11:36:18.423Z,4872.00
2018-03-04T11:37:18.441Z,4816.00
2018-03-04T11:38:18.456Z,4812.00
2018-03-04T11:39:18.473Z,4772.00
2018-03-04T11:40:18.489Z,4708.00
2018-03-04T11:41:18.507Z,4712.00
2018-03-04T11:42:18.524Z,4688.00
2018-03-04T11:43:18.547Z,4652.00
2018-03-04T11:44:18.557Z,4688.00
2018-03-04T11:45:18.574Z,4660.00
2018-03-04T11:46:18.592Z,4668.00
2018-03-04T11:47:18.608Z,4704.00
2018-03-04T11:48:18.625Z,4708.00
2018-03-04T11:49:18.641Z,4624.00
2018-03-04T11:50:18.660Z,4608.00
2018-03-04T11:51:18.676Z,4596.00
2018-03-04T11:52:18.693Z,4580.00
2018-03-04T11:53:18.716Z,4636.00
2018-03-04T11:54:18.731Z,4568.00
2018-03-04T11:55:18.747Z,4548.00
2018-03-04T11:56:18.762Z,4576.00
2018-03-04T11:57:18.781Z,4604.00
2018-03-04T11:58:18.797Z,4628.00
2018-03-04T11:59:18.813Z,4652.00
2018-03-04T12:00:18.831Z,4660.00
2018-03-04T12:01:18.848Z,4608.00
2018-03-04T12:02:18.866Z,4520.00
2018-03-04T12:03:18.888Z,4564.00
2018-03-04T12:04:18.900Z,4708.00
2018-03-04T12:05:18.917Z,4692.00
2018-03-04T12:06:18.934Z,4604.00
2018-03-04T12:07:18.951Z,4644.00
2018-03-04T12:08:18.969Z,4680.00
2018-03-04T12:09:18.986Z,4580.00
2018-03-04T12:10:19.006Z,4584.00
2018-03-04T12:11:19.021Z,4556.00
2018-03-04T12:12:19.040Z,4600.00
2018-03-04T12:13:19.063Z,4616.00
2018-03-04T12:14:19.075Z,4608.00
2018-03-04T12:15:19.092Z,4608.00
2018-03-04T12:16:19.110Z,3740.00
2018-03-04T12:17:19.128Z,4576.00
2018-03-04T12:18:19.146Z,4600.00
2018-03-04T12:19:19.198Z,4584.00
2018-03-04T12:20:19.180Z,4596.00
2018-03-04T12:21:19.200Z,4520.00
2018-03-04T12:22:19.216Z,4512.00
2018-03-04T12:23:19.234Z,4452.00
2018-03-04T12:24:19.252Z,4452.00
2018-03-04T12:25:19.271Z,4496.00
2018-03-04T12:26:19.291Z,4492.00
2018-03-04T12:27:19.306Z,4500.00
2018-03-04T12:28:19.323Z,4548.00
2018-03-04T12:29:19.342Z,4632.00
2018-03-04T12:30:19.362Z,4580.00
2018-03-04T12:31:19.377Z,4612.00
2018-03-04T12:32:19.401Z,4584.00
2018-03-04T12:33:19.414Z,4648.00
2018-03-04T12:34:19.432Z,3996.00
2018-03-04T12:35:19.482Z,4112.00
2018-03-04T12:36:19.473Z,3688.00
2018-03-04T12:37:19.487Z,4028.00
2018-03-04T12:38:19.504Z,3692.00
2018-03-04T12:39:19.522Z,3292.00
2018-03-04T12:40:19.542Z,4328.00
2018-03-04T12:41:19.558Z,3508.00